Dirección General De Aeronáutica Civil

Dirección Meteorológica de Chile - Servicios Climáticos

Informe General de Control de Calidad de la Estación

Listado de niveles de control de calidad para algunos parámetros
Estación Cabildo (320043)
Fecha de Revisión de los datos :

Elementos

Registros Niveles de Control Total
Nivel 0 Nivel 1 Nivel 2 Nivel 3 Errores Porcentaje
01 Temperatura del Aire Seco 16.219 2 0.01 % 0 . 0 . 0 . 2 0.01 %
02 Humedad Relativa del Aire 1.997 0 . 0 . 0 . 0 . 0 0.00 %
03 Temperatura Máxima PM 6.057 0 . 0 . 23 0.38 % 0 . 23 0.38 %
04 Temperatura Mínima AM 6.035 0 . 0 . 3 0.05 % 0 . 3 0.05 %
05 Viento a 10 m. de Altura 5.254 0 . 0 . 0 . 0 . 0 0.00 %

Totales

35.562 . 0.0056 % . 0.0000 % . 0.0731 % . 0.0000 % 28 0.0787 %

Detalle de Errores Encontrados

Nivel Fecha del Dato Descripción Información Error Fecha Ingreso
0 1996-07-01 12:00:00 Ts (Temperatura Del Aire) debe ser numérico, entre -50.0 y 50.0 73.6 2022-03-22 20:40:00
0 1999-09-01 12:00:00 Ts (Temperatura Del Aire) debe ser numérico, entre -50.0 y 50.0 87.8 2022-03-31 19:52:00
Errores del Nivel 2
Nivel Fecha del Dato Descripción Información Error Fecha Ingreso
2 1996-10-29 00:00:00 Temperatura 28.4 del 28-10-1996 18:00, Mayor que la Máxima 24.8 29-10-1996 00:00 28.4 -- 24.8 2022-03-24 20:31:00
2 1996-11-08 00:00:00 Temperatura 18.5 del 07-11-1996 18:00, Mayor que la Máxima 0.5 08-11-1996 00:00 18.5 -- 0.5 2022-03-25 11:35:00
2 1997-08-29 00:00:00 Temperatura 24.0 del 28-08-1997 18:00, Mayor que la Máxima 23.5 29-08-1997 00:00 24.0 -- 23.5 2022-04-25 13:25:00
2 1997-09-23 00:00:00 Temperatura 23.2 del 22-09-1997 18:00, Mayor que la Máxima 22.2 23-09-1997 00:00 23.2 -- 22.2 2022-04-25 16:25:00
2 1997-11-21 00:00:00 Temperatura 22.0 del 20-11-1997 18:00, Mayor que la Máxima 20.4 21-11-1997 00:00 22.0 -- 20.4 2022-04-26 20:02:00
2 1998-03-08 00:00:00 Temperatura 27.6 del 07-03-1998 18:00, Mayor que la Máxima 26.2 08-03-1998 00:00 27.6 -- 26.2 2021-09-23 16:39:00
2 1999-07-10 00:00:00 Temperatura 19.0 del 10-07-1999 00:00, Mayor que la Máxima 14.6 10-07-1999 00:00 19.0 -- 14.6 2022-03-30 19:55:00
2 2000-05-21 00:00:00 Temperatura 25.0 del 20-05-2000 18:00, Mayor que la Máxima 2.4 21-05-2000 00:00 25.0 -- 2.4 2021-10-12 12:16:00
2 2000-06-11 00:00:00 Temperatura 25.6 del 10-06-2000 18:00, Mayor que la Máxima 23.8 11-06-2000 00:00 25.6 -- 23.8 2021-10-12 19:28:00
2 2000-12-01 00:00:00 Temperatura 27.4 del 30-11-2000 18:00, Mayor que la Máxima 27.0 01-12-2000 00:00 27.4 -- 27.0 2021-10-25 13:11:00
2 2001-05-03 00:00:00 Temperatura 28.2 del 02-05-2001 18:00, Mayor que la Máxima 28.0 03-05-2001 00:00 28.2 -- 28.0 2022-04-12 20:16:00
2 2002-11-10 00:00:00 Temperatura 21.6 del 09-11-2002 18:00, Mayor que la Máxima 21.4 10-11-2002 00:00 21.6 -- 21.4 2022-06-16 14:43:00
2 2002-12-29 00:00:00 Temperatura 27.0 del 28-12-2002 18:00, Mayor que la Máxima 26.8 29-12-2002 00:00 27.0 -- 26.8 2022-06-16 17:13:00
2 2003-07-21 00:00:00 Temperatura 19.2 del 20-07-2003 18:00, Mayor que la Máxima 13.2 21-07-2003 00:00 19.2 -- 13.2 2023-12-28 23:13:00
2 2003-07-23 00:00:00 Temperatura 15.6 del 22-07-2003 18:00, Mayor que la Máxima 15.4 23-07-2003 00:00 15.6 -- 15.4 2023-12-28 23:13:00
2 2003-07-26 00:00:00 Temperatura 14.8 del 25-07-2003 18:00, Mayor que la Máxima 14.6 26-07-2003 00:00 14.8 -- 14.6 2023-12-28 23:13:00
2 2003-10-07 00:00:00 Temperatura 28.8 del 06-10-2003 18:00, Mayor que la Máxima 19.0 07-10-2003 00:00 28.8 -- 19.0 2023-12-28 23:13:00
2 2003-10-16 00:00:00 Temperatura 16.8 del 15-10-2003 18:00, Mayor que la Máxima 13.2 16-10-2003 00:00 16.8 -- 13.2 2023-12-28 23:13:00
2 2003-11-12 00:00:00 Temperatura 25.2 del 11-11-2003 18:00, Mayor que la Máxima 24.6 12-11-2003 00:00 25.2 -- 24.6 2023-12-28 23:14:00
2 2004-02-11 00:00:00 Temperatura 28.0 del 10-02-2004 18:00, Mayor que la Máxima 27.8 11-02-2004 00:00 28.0 -- 27.8 2023-12-28 23:14:00
2 2004-03-13 00:00:00 Temperatura 26.4 del 12-03-2004 18:00, Mayor que la Máxima 26.2 13-03-2004 00:00 26.4 -- 26.2 2023-12-28 23:14:00
2 2004-07-15 00:00:00 Temperatura 13.8 del 14-07-2004 18:00, Mayor que la Máxima 13.4 15-07-2004 00:00 13.8 -- 13.4 2023-12-28 23:14:00
2 2004-10-01 00:00:00 Temperatura 26.8 del 30-09-2004 18:00, Mayor que la Máxima 22.4 01-10-2004 00:00 26.8 -- 22.4 2023-12-28 23:14:00
2 2000-05-18 12:00:00 Temperatura 3.6 del 18-05-2000 12:00, Menor que la Mínima 11.2 18-05-2000 12:00 3.6 -- 11.2 2021-10-12 12:08:00
2 2004-06-23 12:00:00 Temperatura 4.8 del 23-06-2004 12:00, Menor que la Mínima 6.0 23-06-2004 12:00 4.8 -- 6.0 2023-12-28 23:14:00
2 2010-05-27 12:00:00 Temperatura 4.9 del 27-05-2010 12:00, Menor que la Mínima 5.0 27-05-2010 12:00 4.9 -- 5.0 2023-11-13 03:22:00
Errores del Nivel 26
Informe generado el 05-03-2024 10:21
Requerimiento: RE6001